Eden, Vermont
Current Conditions -  °F | °C
As of 12:54 PM on Wednesday 28 Jan 2015 (Local Time) from KMVL Reporting Station
Clear Clear  
Wind Chill: -17°   Ceiling: Unl
Heat Index: -9°   Visibility: 10mi
Dew Point: -19°   Wind: 14mph
Humidity: 45%   Direction: 350°N
Pressure: 30.07"   Gusts: NA
Location:  44.71°N, 72.55°W
Report Text: KMVL 281754Z AUTO 35012KT 10SM CLR M09/M19 A3007 RMK AO2 UPE43 SLP202 P0000 60000 T10941194 11094 21150 55003 TSNO
Loading
Personal Weather Stations






























Interactive Weather Map New forecast layout! Learn more

10-Day Weather Forecast

Advertisements
Track Severe Weather on mobile